Time;durP1;ratioP1;P1;durP2;ratioP2;P2;SDS_P1;SDS_P2;PMS_P1;PMS_P2;Temp;Humidity;BMP_temperature;BMP_pressure;BME280_temperature;BME280_humidity;BME280_pressure;Samples;Min_cycle;Max_cycle;Signal;HPM_P1;HPM_P2
2023/01/31 00:01:20;;;;;;;13.00;2.17;;;;;;;-146.73;100.00;56421.06;6178344;23;20506;-87
2023/01/31 00:03:47;;;;;;;8.73;1.80;;;;;;;-146.73;100.00;56421.06;6173268;23;20024;-88
2023/01/31 00:06:34;;;;;;;11.27;1.60;;;;;;;-146.73;100.00;56421.06;6174904;23;20321;-88
2023/01/31 00:09:01;;;;;;;10.85;1.60;;;;;;;-146.73;100.00;56421.06;6173510;23;20366;-88
2023/01/31 00:11:28;;;;;;;11.15;1.90;;;;;;;-146.73;100.00;56421.06;6179338;23;20005;-92
2023/01/31 00:13:55;;;;;;;16.38;2.08;;;;;;;-146.73;100.00;56421.06;6180000;23;20044;-93
2023/01/31 00:16:21;;;;;;;12.80;2.08;;;;;;;-146.73;100.00;56421.06;6179951;23;20032;-92
2023/01/31 00:18:47;;;;;;;9.50;2.00;;;;;;;-146.73;100.00;56421.06;6179557;23;20009;-92
2023/01/31 00:21:18;;;;;;;12.35;1.92;;;;;;;-146.73;100.00;56421.06;6178488;23;20013;-92
2023/01/31 00:23:46;;;;;;;10.45;1.75;;;;;;;-146.73;100.00;56421.06;6177724;23;20013;-92
2023/01/31 00:26:16;;;;;;;11.55;2.08;;;;;;;-146.73;100.00;56421.06;6175330;23;20001;-89
2023/01/31 00:28:46;;;;;;;9.45;1.85;;;;;;;-146.73;100.00;56421.06;6173339;23;20076;-87
2023/01/31 00:31:13;;;;;;;13.75;1.98;;;;;;;-146.73;100.00;56421.06;6172698;23;20008;-88
2023/01/31 00:33:42;;;;;;;11.05;2.45;;;;;;;-146.73;100.00;56421.06;6171658;23;20027;-88
2023/01/31 00:36:14;;;;;;;13.82;2.00;;;;;;;-146.73;100.00;56421.06;6172890;23;20016;-88
2023/01/31 00:38:41;;;;;;;13.40;1.85;;;;;;;-146.73;100.00;56421.06;6171382;23;20431;-88
2023/01/31 00:41:07;;;;;;;15.98;2.13;;;;;;;-146.73;100.00;56421.06;6173568;23;20008;-88
2023/01/31 00:43:39;;;;;;;10.68;1.70;;;;;;;-146.73;100.00;56421.06;6171889;23;20017;-88
2023/01/31 00:46:05;;;;;;;10.10;1.50;;;;;;;-146.73;100.00;56421.06;6173851;23;20057;-89
2023/01/31 00:48:31;;;;;;;12.63;1.70;;;;;;;-146.73;100.00;56421.06;6172320;23;20016;-88
2023/01/31 00:50:56;;;;;;;11.10;1.67;;;;;;;-146.73;100.00;56421.06;6172489;23;20095;-88
2023/01/31 00:53:22;;;;;;;9.88;1.45;;;;;;;-146.73;100.00;56421.06;6171965;23;20008;-88
2023/01/31 00:55:54;;;;;;;11.57;1.77;;;;;;;-146.73;100.00;56421.06;6171371;23;20008;-88
2023/01/31 00:58:20;;;;;;;11.35;1.75;;;;;;;-146.73;100.00;56421.06;6171962;23;20013;-88
2023/01/31 01:00:45;;;;;;;10.27;1.75;;;;;;;-146.73;100.00;56421.06;6173593;23;20087;-88
2023/01/31 01:03:11;;;;;;;10.43;1.77;;;;;;;-146.73;100.00;56421.06;6172089;23;20355;-88
2023/01/31 01:05:37;;;;;;;12.25;1.95;;;;;;;-146.73;100.00;56421.06;6174368;23;20016;-87
2023/01/31 01:08:02;;;;;;;12.15;2.03;;;;;;;-146.73;100.00;56421.06;6171199;23;20362;-88
2023/01/31 01:10:28;;;;;;;10.40;1.88;;;;;;;-146.73;100.00;56421.06;6174244;23;20005;-87
2023/01/31 01:12:53;;;;;;;6.82;1.38;;;;;;;-146.73;100.00;56421.06;6173755;23;20028;-87
2023/01/31 01:15:19;;;;;;;12.88;2.22;;;;;;;-146.73;100.00;56421.06;6172982;23;20017;-87
2023/01/31 01:17:45;;;;;;;11.25;1.75;;;;;;;-146.73;100.00;56421.06;6171639;23;20040;-87
2023/01/31 01:20:11;;;;;;;10.95;2.00;;;;;;;-146.73;100.00;56421.06;6171446;23;20025;-88
2023/01/31 01:22:37;;;;;;;10.48;2.00;;;;;;;-146.73;100.00;56421.06;6173526;23;20705;-88
2023/01/31 01:25:03;;;;;;;11.32;1.70;;;;;;;-146.73;100.00;56421.06;6175336;23;20005;-88
2023/01/31 01:27:30;;;;;;;8.77;1.70;;;;;;;-146.73;100.00;56421.06;6173176;23;20642;-88
2023/01/31 01:29:55;;;;;;;11.13;1.65;;;;;;;-146.73;100.00;56421.06;6173758;23;20028;-88
2023/01/31 01:32:21;;;;;;;10.45;1.73;;;;;;;-146.73;100.00;56421.06;6175574;23;20017;-88
2023/01/31 01:34:46;;;;;;;9.05;1.73;;;;;;;-146.73;100.00;56421.06;6173671;23;20351;-88
2023/01/31 01:37:18;;;;;;;11.43;1.85;;;;;;;-146.73;100.00;56421.06;6173626;23;20020;-88
2023/01/31 01:39:45;;;;;;;11.82;1.98;;;;;;;-146.73;100.00;56421.06;6175311;23;20021;-88
2023/01/31 01:42:16;;;;;;;13.02;2.65;;;;;;;-146.73;100.00;56421.06;6174150;23;20051;-88
2023/01/31 01:44:54;;;;;;;12.57;1.60;;;;;;;-146.73;100.00;56421.06;6175530;23;20001;-87
2023/01/31 01:47:26;;;;;;;10.30;1.55;;;;;;;-146.73;100.00;56421.06;6173718;23;20137;-88
2023/01/31 01:49:57;;;;;;;15.75;2.13;;;;;;;-146.73;100.00;56421.06;6176528;23;20027;-88
2023/01/31 01:52:25;;;;;;;8.82;1.33;;;;;;;-146.73;100.00;56421.06;6172070;23;20015;-89
2023/01/31 01:55:02;;;;;;;11.55;1.77;;;;;;;-146.73;100.00;56421.06;6173084;23;20253;-88
2023/01/31 01:57:34;;;;;;;6.30;1.55;;;;;;;-146.73;100.00;56421.06;6173875;23;20468;-88
2023/01/31 02:00:08;;;;;;;10.85;1.48;;;;;;;-146.73;100.00;56421.06;6176194;23;20317;-88
2023/01/31 02:02:34;;;;;;;8.88;2.03;;;;;;;-146.73;100.00;56421.06;6175214;23;20123;-88
2023/01/31 02:05:01;;;;;;;8.82;1.50;;;;;;;-146.73;100.00;56421.06;6174018;23;20453;-89
2023/01/31 02:07:26;;;;;;;10.57;1.30;;;;;;;-146.73;100.00;56421.06;6174564;23;20055;-89
2023/01/31 02:10:03;;;;;;;15.07;1.95;;;;;;;-146.73;100.00;56421.06;6177218;23;20044;-92
2023/01/31 02:12:30;;;;;;;14.63;1.83;;;;;;;-146.73;100.00;56421.06;6178513;23;20344;-92
2023/01/31 02:14:56;;;;;;;6.78;1.10;;;;;;;-146.73;100.00;56421.06;6178352;23;20096;-92
2023/01/31 02:17:21;;;;;;;10.40;1.65;;;;;;;-146.73;100.00;56421.06;6180012;23;20450;-91
2023/01/31 02:19:53;;;;;;;8.98;2.10;;;;;;;-146.73;100.00;56421.06;6180009;23;20023;-92
2023/01/31 02:22:19;;;;;;;11.10;1.52;;;;;;;-146.73;100.00;56421.06;6179133;23;20020;-93
2023/01/31 02:25:05;;;;;;;8.48;1.50;;;;;;;-146.73;100.00;56421.06;6178970;23;20021;-91
2023/01/31 02:27:54;;;;;;;8.52;1.45;;;;;;;-146.73;100.00;56421.06;6178422;23;20006;-92
2023/01/31 02:30:22;;;;;;;11.60;2.00;;;;;;;-146.73;100.00;56421.06;6178594;23;20005;-91
2023/01/31 02:32:55;;;;;;;12.77;2.10;;;;;;;-146.73;100.00;56421.06;6178272;23;20020;-94
2023/01/31 02:35:26;;;;;;;11.07;1.80;;;;;;;-146.73;100.00;56421.06;6178010;23;20083;-91
2023/01/31 02:38:26;;;;;;;8.18;1.65;;;;;;;-146.73;100.00;56421.06;6178220;23;20040;-92
2023/01/31 02:41:00;;;;;;;9.98;1.50;;;;;;;-146.73;100.00;56421.06;6178596;23;20048;-92
2023/01/31 02:47:09;;;;;;;8.93;1.67;;;;;;;-146.73;100.00;56421.06;6179781;23;20027;-94
2023/01/31 02:50:18;;;;;;;11.40;1.87;;;;;;;-146.73;100.00;56421.06;6178644;23;20399;-92
2023/01/31 02:53:14;;;;;;;11.32;1.45;;;;;;;-146.73;100.00;56421.06;6175887;23;20514;-90
2023/01/31 02:58:39;;;;;;;10.38;2.22;;;;;;;-146.73;100.00;56421.06;6177899;23;20039;-92
2023/01/31 03:04:21;;;;;;;12.23;1.50;;;;;;;-146.73;100.00;56421.06;6184361;22;20104;-93
2023/01/31 03:07:03;;;;;;;12.27;2.05;;;;;;;-146.73;100.00;56421.06;6156941;23;20045;-93
2023/01/31 03:09:58;;;;;;;10.68;2.10;;;;;;;-146.73;100.00;56421.06;6158488;23;20001;-94
2023/01/31 03:12:41;;;;;;;16.02;2.30;;;;;;;-146.73;100.00;56421.06;6158181;23;20005;-93
2023/01/31 03:18:33;;;;;;;11.35;1.98;;;;;;;-146.73;100.00;56421.06;6063655;23;20491;-94
2023/01/31 03:21:09;;;;;;;14.30;2.80;;;;;;;-146.73;100.00;56421.06;6039250;23;20440;-93
2023/01/31 03:23:43;;;;;;;19.20;2.90;;;;;;;-146.73;100.00;56421.06;6040013;23;20444;-93
2023/01/31 03:26:09;;;;;;;12.30;2.13;;;;;;;-146.73;100.00;56421.06;6039535;23;20073;-94
2023/01/31 03:28:41;;;;;;;10.75;2.22;;;;;;;-146.73;100.00;56421.06;6039646;23;20126;-92
2023/01/31 03:31:24;;;;;;;10.70;2.10;;;;;;;-146.73;100.00;56421.06;6039623;23;20014;-93
2023/01/31 03:33:54;;;;;;;16.52;2.80;;;;;;;-146.73;100.00;56421.06;6040009;23;20098;-93
2023/01/31 03:36:28;;;;;;;15.60;2.75;;;;;;;-146.73;100.00;56421.06;6038886;23;20011;-94
2023/01/31 03:39:19;;;;;;;13.05;2.70;;;;;;;-146.73;100.00;56421.06;6039905;23;20022;-94
2023/01/31 03:41:57;;;;;;;13.20;2.60;;;;;;;-146.73;100.00;56421.06;6063716;23;20103;-95
2023/01/31 03:44:25;;;;;;;18.80;4.00;;;;;;;-146.73;100.00;56421.06;6039554;23;20034;-94
2023/01/31 03:46:59;;;;;;;14.20;4.43;;;;;;;-146.73;100.00;56421.06;6039170;23;20015;-94
2023/01/31 03:49:30;;;;;;;13.15;3.53;;;;;;;-146.73;100.00;56421.06;6063985;23;20003;-95
2023/01/31 03:52:08;;;;;;;15.98;3.25;;;;;;;-146.73;100.00;56421.06;6039574;23;20105;-95
2023/01/31 03:54:44;;;;;;;16.35;3.63;;;;;;;-146.73;100.00;56421.06;6140097;23;20017;-94
2023/01/31 03:57:18;;;;;;;12.43;3.33;;;;;;;-146.73;100.00;56421.06;6157807;23;20017;-95
2023/01/31 03:59:52;;;;;;;16.60;3.70;;;;;;;-146.73;100.00;56421.06;6157796;23;20339;-94
2023/01/31 04:02:22;;;;;;;12.75;3.10;;;;;;;-146.73;100.00;56421.06;6157921;23;20092;-93
2023/01/31 04:05:09;;;;;;;18.23;5.15;;;;;;;-146.73;100.00;56421.06;6156857;23;20083;-95
2023/01/31 04:07:36;;;;;;;14.30;3.03;;;;;;;-146.73;100.00;56421.06;6154204;23;20087;-95
2023/01/31 04:10:06;;;;;;;10.85;2.28;;;;;;;-146.73;100.00;56421.06;6155983;23;20016;-94
2023/01/31 04:12:36;;;;;;;9.07;1.83;;;;;;;-146.73;100.00;56421.06;6156218;23;20009;-95
2023/01/31 04:15:08;;;;;;;12.57;2.25;;;;;;;-146.73;100.00;56421.06;6155835;23;20442;-92
2023/01/31 04:17:34;;;;;;;17.88;3.10;;;;;;;-146.73;100.00;56421.06;6156436;23;20023;-93
2023/01/31 04:20:00;;;;;;;14.20;3.60;;;;;;;-146.73;100.00;56421.06;6156410;23;20441;-93
2023/01/31 04:22:33;;;;;;;12.43;3.90;;;;;;;-146.73;100.00;56421.06;6156454;23;20028;-93
2023/01/31 04:25:11;;;;;;;15.57;3.53;;;;;;;-146.73;100.00;56421.06;6156971;23;20012;-94
2023/01/31 04:27:38;;;;;;;22.13;5.32;;;;;;;-146.73;100.00;56421.06;6156185;23;20009;-94
2023/01/31 04:30:11;;;;;;;14.55;5.55;;;;;;;-146.73;100.00;56421.06;6156361;23;20439;-96
2023/01/31 04:32:43;;;;;;;14.00;4.88;;;;;;;-146.73;100.00;56421.06;6156444;23;20013;-94
2023/01/31 04:35:09;;;;;;;14.32;5.28;;;;;;;-146.73;100.00;56421.06;6157598;23;20011;-96
2023/01/31 04:37:35;;;;;;;20.98;6.15;;;;;;;-146.73;100.00;56421.06;6155291;23;20417;-95
2023/01/31 04:40:01;;;;;;;15.27;5.45;;;;;;;-146.73;100.00;56421.06;6157305;23;20028;-95
2023/01/31 04:42:30;;;;;;;20.10;6.13;;;;;;;-146.73;100.00;56421.06;6156076;23;20032;-95
2023/01/31 04:45:01;;;;;;;14.35;5.03;;;;;;;-146.73;100.00;56421.06;6156653;23;20012;-95
2023/01/31 04:47:27;;;;;;;19.00;4.90;;;;;;;-146.73;100.00;56421.06;6155857;23;20017;-94
2023/01/31 04:49:53;;;;;;;12.50;3.75;;;;;;;-146.73;100.00;56421.06;6156993;23;20016;-94
2023/01/31 04:52:23;;;;;;;13.73;2.83;;;;;;;-146.73;100.00;56421.06;6155309;23;20169;-93
2023/01/31 04:54:51;;;;;;;11.80;3.30;;;;;;;-146.73;100.00;56421.06;6156046;23;20017;-94
2023/01/31 04:57:24;;;;;;;7.50;2.38;;;;;;;-146.73;100.00;56421.06;6155720;23;20005;-93
2023/01/31 04:59:51;;;;;;;9.52;2.60;;;;;;;-146.73;100.00;56421.06;6156078;23;20017;-93
2023/01/31 05:02:22;;;;;;;8.90;1.98;;;;;;;-146.73;100.00;56421.06;6155743;23;20013;-94
2023/01/31 05:04:55;;;;;;;8.70;2.10;;;;;;;-146.73;100.00;56421.06;6179450;23;20017;-94
2023/01/31 05:07:24;;;;;;;6.40;1.63;;;;;;;-146.73;100.00;56421.06;6180939;23;20104;-93
2023/01/31 05:09:49;;;;;;;8.00;1.83;;;;;;;-146.73;100.00;56421.06;6181573;23;20047;-92
2023/01/31 05:12:18;;;;;;;5.82;1.40;;;;;;;-146.73;100.00;56421.06;6180342;23;20374;-93
2023/01/31 05:14:52;;;;;;;4.93;1.27;;;;;;;-146.73;100.00;56421.06;6182850;23;20071;-93
2023/01/31 05:17:24;;;;;;;7.72;1.70;;;;;;;-146.73;100.00;56421.06;6181198;23;20012;-94
2023/01/31 05:19:51;;;;;;;6.18;1.33;;;;;;;-146.73;100.00;56421.06;6180139;23;20009;-94
2023/01/31 05:22:29;;;;;;;6.05;1.65;;;;;;;-146.73;100.00;56421.06;6180731;23;20024;-93
2023/01/31 05:24:58;;;;;;;7.78;1.80;;;;;;;-146.73;100.00;56421.06;6180288;23;20020;-95
2023/01/31 05:27:25;;;;;;;7.10;2.10;;;;;;;-146.73;100.00;56421.06;6179305;23;20017;-94
2023/01/31 05:29:54;;;;;;;8.73;2.65;;;;;;;-146.73;100.00;56421.06;6178328;23;20013;-94
2023/01/31 05:32:22;;;;;;;10.40;3.78;;;;;;;-146.73;100.00;56421.06;6180596;23;20012;-94
2023/01/31 05:34:48;;;;;;;11.70;4.70;;;;;;;-146.73;100.00;56421.06;6181434;23;20001;-93
2023/01/31 05:37:16;;;;;;;13.85;5.25;;;;;;;-146.73;100.00;56421.06;6182018;23;20012;-95
2023/01/31 05:39:45;;;;;;;16.63;6.05;;;;;;;-146.73;100.00;56421.06;6181985;23;20029;-93
2023/01/31 05:42:38;;;;;;;17.63;6.30;;;;;;;-146.73;100.00;56421.06;6180621;23;20013;-92
2023/01/31 05:45:08;;;;;;;18.63;6.75;;;;;;;-146.73;100.00;56421.06;6180169;23;20017;-92
2023/01/31 05:47:37;;;;;;;16.33;6.68;;;;;;;-146.73;100.00;56421.06;6180246;23;20005;-92
2023/01/31 05:50:06;;;;;;;13.30;6.65;;;;;;;-146.73;100.00;56421.06;6180919;23;20028;-94
2023/01/31 05:52:38;;;;;;;15.10;7.30;;;;;;;-146.73;100.00;56421.06;6180857;23;20001;-94
2023/01/31 05:55:08;;;;;;;16.38;6.43;;;;;;;-146.73;100.00;56421.06;6181032;23;20055;-94
2023/01/31 05:57:34;;;;;;;16.35;6.15;;;;;;;-146.73;100.00;56421.06;6181282;23;20036;-94
2023/01/31 05:59:59;;;;;;;15.80;7.20;;;;;;;-146.73;100.00;56421.06;6181691;23;20028;-93
2023/01/31 06:02:25;;;;;;;13.52;6.90;;;;;;;-146.73;100.00;56421.06;6180718;23;20012;-94
2023/01/31 06:04:51;;;;;;;15.95;7.18;;;;;;;-146.73;100.00;56421.06;6158588;23;20024;-92
2023/01/31 06:07:16;;;;;;;14.25;6.28;;;;;;;-146.73;100.00;56421.06;6156525;23;20056;-93
2023/01/31 06:09:46;;;;;;;76.00;11.15;;;;;;;-146.73;100.00;56421.06;6182413;23;20005;-94
2023/01/31 06:12:15;;;;;;;14.93;5.57;;;;;;;-146.73;100.00;56421.06;6158533;23;20027;-94
2023/01/31 06:14:44;;;;;;;13.07;5.50;;;;;;;-146.73;100.00;56421.06;6159304;23;20042;-95
2023/01/31 06:17:13;;;;;;;17.85;5.30;;;;;;;-146.73;100.00;56421.06;6159114;23;20008;-92
2023/01/31 06:19:42;;;;;;;22.05;5.70;;;;;;;-146.73;100.00;56421.06;6158063;23;20004;-94
2023/01/31 06:22:07;;;;;;;13.85;5.18;;;;;;;-146.73;100.00;56421.06;6158396;23;20218;-92
2023/01/31 06:24:33;;;;;;;17.40;5.00;;;;;;;-146.73;100.00;56421.06;6157150;23;20082;-94
2023/01/31 06:27:02;;;;;;;11.13;5.03;;;;;;;-146.73;100.00;56421.06;6156784;23;20012;-93
2023/01/31 06:29:30;;;;;;;12.43;5.32;;;;;;;-146.73;100.00;56421.06;6157016;23;20104;-94
2023/01/31 06:31:55;;;;;;;11.43;4.10;;;;;;;-146.73;100.00;56421.06;6182665;23;20059;-93
2023/01/31 06:34:21;;;;;;;8.05;3.90;;;;;;;-146.73;100.00;56421.06;6182762;23;20009;-91
2023/01/31 06:36:53;;;;;;;11.48;3.92;;;;;;;-146.73;100.00;56421.06;6156619;23;20013;-93
2023/01/31 06:39:23;;;;;;;9.30;3.83;;;;;;;-146.73;100.00;56421.06;6156318;23;20013;-94
2023/01/31 06:41:49;;;;;;;11.60;3.97;;;;;;;-146.73;100.00;56421.06;6156452;23;20015;-95
2023/01/31 06:44:14;;;;;;;10.38;3.78;;;;;;;-146.73;100.00;56421.06;6155224;23;20009;-95
2023/01/31 06:46:45;;;;;;;10.32;3.42;;;;;;;-146.73;100.00;56421.06;6156126;23;20044;-93
2023/01/31 06:49:12;;;;;;;8.35;3.22;;;;;;;-146.73;100.00;56421.06;6156588;23;20041;-94
2023/01/31 06:51:38;;;;;;;6.72;2.38;;;;;;;-146.73;100.00;56421.06;6157033;23;20016;-94
2023/01/31 06:54:04;;;;;;;6.90;2.20;;;;;;;-146.73;100.00;56421.06;6179454;23;20005;-91
2023/01/31 06:56:41;;;;;;;13.40;2.63;;;;;;;-146.73;100.00;56421.06;6179978;23;20783;-93
2023/01/31 07:00:00;;;;;;;7.95;2.83;;;;;;;-146.73;100.00;56421.06;6154413;23;20084;-93
2023/01/31 07:07:19;;;;;;;6.53;2.40;;;;;;;-146.73;100.00;56421.06;6123419;23;20029;-94
2023/01/31 07:33:42;;;;;;;6.40;1.50;;;;;;;-146.73;100.00;56421.06;6181167;22;20031;-93
2023/01/31 07:36:12;;;;;;;5.68;1.40;;;;;;;-146.73;100.00;56421.06;6177268;23;20021;-92
2023/01/31 07:38:37;;;;;;;5.90;1.55;;;;;;;-146.73;100.00;56421.06;6177873;23;20453;-92
2023/01/31 07:41:04;;;;;;;6.78;1.38;;;;;;;-146.73;100.00;56421.06;6179492;23;20017;-93
2023/01/31 07:43:31;;;;;;;4.65;1.30;;;;;;;-146.73;100.00;56421.06;6180595;23;20013;-93
2023/01/31 07:45:56;;;;;;;9.63;1.63;;;;;;;-146.73;100.00;56421.06;6179374;23;20521;-93
2023/01/31 07:48:22;;;;;;;15.98;1.88;;;;;;;-146.73;100.00;56421.06;6181424;23;20005;-91
2023/01/31 07:51:07;;;;;;;7.10;1.50;;;;;;;-146.73;100.00;56421.06;6180135;23;20021;-93
2023/01/31 07:53:37;;;;;;;6.15;1.65;;;;;;;-146.73;100.00;56421.06;6180775;23;20072;-93
2023/01/31 07:56:14;;;;;;;8.82;1.73;;;;;;;-146.73;100.00;56421.06;6181582;23;19997;-93
2023/01/31 07:58:41;;;;;;;5.10;1.33;;;;;;;-146.73;100.00;56421.06;6180864;23;20096;-92
2023/01/31 08:03:57;;;;;;;9.52;1.33;;;;;;;-146.73;100.00;56421.06;6180641;23;20048;-92
2023/01/31 08:06:22;;;;;;;14.18;2.10;;;;;;;-146.73;100.00;56421.06;6180500;23;20096;-92
2023/01/31 08:08:47;;;;;;;16.17;2.55;;;;;;;-146.73;100.00;56421.06;6180551;23;20100;-93
2023/01/31 08:11:17;;;;;;;14.13;2.40;;;;;;;-146.73;100.00;56421.06;6180580;23;20008;-92
2023/01/31 08:13:42;;;;;;;17.88;2.78;;;;;;;-146.73;100.00;56421.06;6177012;23;20121;-92
2023/01/31 08:16:09;;;;;;;18.17;3.40;;;;;;;-146.73;100.00;56421.06;6179063;23;20135;-92
2023/01/31 08:18:36;;;;;;;14.40;2.47;;;;;;;-146.73;100.00;56421.06;6178510;23;20172;-94
2023/01/31 08:21:06;;;;;;;16.75;2.60;;;;;;;-146.73;100.00;56421.06;6181171;23;20017;-93
2023/01/31 08:23:33;;;;;;;15.57;2.45;;;;;;;-146.73;100.00;56421.06;6175764;23;20024;-90
2023/01/31 08:26:04;;;;;;;20.45;2.58;;;;;;;-146.73;100.00;56421.06;6176454;23;20044;-91
2023/01/31 08:28:33;;;;;;;21.17;3.10;;;;;;;-146.73;100.00;56421.06;6174946;23;20443;-92
2023/01/31 08:31:17;;;;;;;16.25;2.70;;;;;;;-146.73;100.00;56421.06;6178510;23;20005;-91
2023/01/31 08:33:42;;;;;;;15.18;2.40;;;;;;;-146.73;100.00;56421.06;6178298;23;20040;-91
2023/01/31 08:36:12;;;;;;;17.45;3.30;;;;;;;-146.73;100.00;56421.06;6177219;23;20377;-92
2023/01/31 08:38:40;;;;;;;17.48;3.22;;;;;;;-146.73;100.00;56421.06;6177552;23;20036;-91
2023/01/31 08:41:09;;;;;;;20.92;4.20;;;;;;;-146.73;100.00;56421.06;6175811;23;20091;-91
2023/01/31 08:43:36;;;;;;;16.15;3.10;;;;;;;-146.73;100.00;56421.06;6175655;23;20020;-93
2023/01/31 08:46:03;;;;;;;21.70;3.42;;;;;;;-146.73;100.00;56421.06;6175399;23;20564;-90
2023/01/31 08:48:32;;;;;;;18.30;2.78;;;;;;;-146.73;100.00;56421.06;6177222;23;20320;-93
2023/01/31 08:51:04;;;;;;;19.35;3.15;;;;;;;-146.73;100.00;56421.06;6180503;23;20012;-92
2023/01/31 08:53:32;;;;;;;20.25;2.80;;;;;;;-146.73;100.00;56421.06;6179111;23;20013;-93
2023/01/31 08:56:02;;;;;;;17.75;3.00;;;;;;;-146.73;100.00;56421.06;6177636;23;20099;-93
2023/01/31 08:58:31;;;;;;;18.73;2.78;;;;;;;-146.73;100.00;56421.06;6175875;23;20025;-92
2023/01/31 09:01:01;;;;;;;17.73;2.65;;;;;;;-146.73;100.00;56421.06;6177841;23;20044;-93
2023/01/31 09:03:27;;;;;;;27.17;3.63;;;;;;;-146.73;100.00;56421.06;6178718;23;20430;-93
2023/01/31 09:05:52;;;;;;;17.63;2.70;;;;;;;-146.73;100.00;56421.06;6179029;23;20008;-91
2023/01/31 09:08:18;;;;;;;24.88;4.00;;;;;;;-146.73;100.00;56421.06;6179840;23;20060;-92
2023/01/31 09:10:51;;;;;;;19.25;2.45;;;;;;;-146.73;100.00;56421.06;6177581;23;20024;-93
2023/01/31 09:13:16;;;;;;;20.90;2.92;;;;;;;-146.73;100.00;56421.06;6178784;23;20346;-92
2023/01/31 09:15:42;;;;;;;17.73;3.00;;;;;;;-146.73;100.00;56421.06;6177775;23;20020;-92
2023/01/31 09:18:08;;;;;;;18.50;3.10;;;;;;;-146.73;100.00;56421.06;6178571;23;20020;-92
2023/01/31 09:23:28;;;;;;;19.67;3.38;;;;;;;-146.73;100.00;56421.06;6177373;23;20380;-92
2023/01/31 09:26:01;;;;;;;17.25;2.88;;;;;;;-146.73;100.00;56421.06;6176870;23;20016;-92
2023/01/31 09:28:26;;;;;;;19.65;2.97;;;;;;;-146.73;100.00;56421.06;6178225;23;20024;-92
2023/01/31 09:31:02;;;;;;;15.32;2.90;;;;;;;-146.73;100.00;56421.06;6178340;23;20099;-92
2023/01/31 09:33:31;;;;;;;22.77;3.55;;;;;;;-146.73;100.00;56421.06;6176490;23;20099;-92
2023/01/31 09:36:00;;;;;;;20.55;3.05;;;;;;;-146.73;100.00;56421.06;6180127;23;20076;-92
2023/01/31 09:38:25;;;;;;;16.88;3.00;;;;;;;-146.73;100.00;56421.06;6176567;23;20005;-92
2023/01/31 09:40:56;;;;;;;13.48;3.03;;;;;;;-146.73;100.00;56421.06;6176536;23;20024;-92
2023/01/31 09:43:29;;;;;;;18.73;2.40;;;;;;;-146.73;100.00;56421.06;6177927;23;20040;-92
2023/01/31 09:46:01;;;;;;;17.52;2.60;;;;;;;-146.73;100.00;56421.06;6180948;23;20039;-92
2023/01/31 09:48:41;;;;;;;18.23;2.47;;;;;;;-146.73;100.00;56421.06;6177340;23;20005;-92
2023/01/31 09:51:16;;;;;;;20.65;3.03;;;;;;;-146.73;100.00;56421.06;6178696;23;20788;-92
2023/01/31 09:53:46;;;;;;;20.13;2.88;;;;;;;-146.73;100.00;56421.06;6178630;23;20470;-93
2023/01/31 09:56:24;;;;;;;17.08;2.80;;;;;;;-146.73;100.00;56421.06;6180993;23;20047;-91
2023/01/31 09:59:05;;;;;;;16.35;3.03;;;;;;;-146.73;100.00;56421.06;6180233;23;20164;-93
2023/01/31 10:01:42;;;;;;;17.58;3.10;;;;;;;-146.73;100.00;56421.06;6181347;23;20013;-93
2023/01/31 10:04:24;;;;;;;16.85;2.80;;;;;;;-146.73;100.00;56421.06;6181079;23;20005;-92
2023/01/31 10:06:59;;;;;;;21.08;3.53;;;;;;;-146.73;100.00;56421.06;6180695;23;20091;-93
2023/01/31 10:09:31;;;;;;;19.10;3.83;;;;;;;-146.73;100.00;56421.06;6179584;23;20469;-94
2023/01/31 10:12:22;;;;;;;17.00;2.17;;;;;;;-146.73;100.00;56421.06;6180148;23;20047;-93
2023/01/31 10:14:56;;;;;;;20.15;2.92;;;;;;;-146.73;100.00;56421.06;6167042;23;20072;-93
2023/01/31 10:21:00;;;;;;;21.52;3.22;;;;;;;-146.73;100.00;56421.06;6178780;23;20052;-92
2023/01/31 10:23:52;;;;;;;21.55;3.03;;;;;;;-146.73;100.00;56421.06;6090168;23;20022;-92
2023/01/31 10:26:36;;;;;;;19.73;3.15;;;;;;;-146.73;100.00;56421.06;6066950;23;20014;-92
2023/01/31 10:29:17;;;;;;;17.08;2.85;;;;;;;-146.73;100.00;56421.06;6065586;23;20018;-93
2023/01/31 10:32:28;;;;;;;13.60;2.30;;;;;;;-146.73;100.00;56421.06;6065425;23;20087;-93
2023/01/31 10:35:29;;;;;;;9.68;1.95;;;;;;;-146.73;100.00;56421.06;6066209;23;20129;-93
2023/01/31 10:38:15;;;;;;;10.10;2.10;;;;;;;-146.73;100.00;56421.06;6066526;23;20018;-93
2023/01/31 10:40:44;;;;;;;12.93;2.63;;;;;;;-146.73;100.00;56421.06;6072707;23;20041;-90
2023/01/31 10:43:29;;;;;;;13.82;2.15;;;;;;;-146.73;100.00;56421.06;6066704;23;20038;-92
2023/01/31 10:45:59;;;;;;;15.70;2.72;;;;;;;-146.73;100.00;56421.06;6068024;23;20014;-92
2023/01/31 10:48:28;;;;;;;22.25;3.20;;;;;;;-146.73;100.00;56421.06;6067292;23;20022;-92
2023/01/31 10:51:25;;;;;;;17.65;3.00;;;;;;;-146.73;100.00;56421.06;6092931;23;20082;-93
2023/01/31 10:57:17;;;;;;;15.63;2.72;;;;;;;-146.73;100.00;56421.06;6090877;23;20037;-93
2023/01/31 10:59:49;;;;;;;18.48;2.95;;;;;;;-146.73;100.00;56421.06;6105569;23;20346;-94
2023/01/31 11:02:27;;;;;;;15.80;3.38;;;;;;;-146.73;100.00;56421.06;6185270;23;20429;-94
2023/01/31 11:04:55;;;;;;;15.55;2.80;;;;;;;-146.73;100.00;56421.06;6185289;23;20020;-93
2023/01/31 11:07:22;;;;;;;20.95;2.80;;;;;;;-146.73;100.00;56421.06;6184943;23;20005;-94
2023/01/31 11:09:52;;;;;;;17.90;2.67;;;;;;;-146.73;100.00;56421.06;6185173;23;20614;-93
2023/01/31 11:12:19;;;;;;;18.20;3.05;;;;;;;-146.73;100.00;56421.06;6183795;23;20051;-92
2023/01/31 11:15:04;;;;;;;24.58;4.22;;;;;;;-146.73;100.00;56421.06;6212192;23;20034;-92
2023/01/31 11:17:41;;;;;;;26.17;3.47;;;;;;;-146.73;100.00;56421.06;6213285;23;20009;-94
2023/01/31 11:20:20;;;;;;;16.55;3.25;;;;;;;-146.73;100.00;56421.06;6184565;23;20457;-93
2023/01/31 11:22:53;;;;;;;20.40;4.10;;;;;;;-146.73;100.00;56421.06;6187541;23;20004;-96
2023/01/31 11:25:25;;;;;;;22.13;2.75;;;;;;;-146.73;100.00;56421.06;6186378;23;20020;-94
2023/01/31 11:27:59;;;;;;;26.23;3.22;;;;;;;-146.73;100.00;56421.06;6185659;23;20931;-93
2023/01/31 11:30:30;;;;;;;16.45;2.75;;;;;;;-146.73;100.00;56421.06;6187503;23;20008;-93
2023/01/31 11:32:56;;;;;;;20.88;2.45;;;;;;;-146.73;100.00;56421.06;6186871;23;20667;-95
2023/01/31 11:35:26;;;;;;;20.35;2.53;;;;;;;-146.73;100.00;56421.06;6186906;23;20018;-94
2023/01/31 11:38:10;;;;;;;19.48;4.18;;;;;;;-146.73;100.00;56421.06;6184705;23;20107;-93
2023/01/31 11:40:38;;;;;;;22.92;3.80;;;;;;;-146.73;100.00;56421.06;6211494;23;20054;-94
2023/01/31 11:43:29;;;;;;;20.45;3.25;;;;;;;-146.73;100.00;56421.06;6210556;23;20012;-94
2023/01/31 11:46:02;;;;;;;17.15;3.58;;;;;;;-146.73;100.00;56421.06;6165073;23;20595;-94
2023/01/31 11:48:45;;;;;;;17.38;2.80;;;;;;;-146.73;100.00;56421.06;6183833;23;20032;-94
2023/01/31 11:51:26;;;;;;;17.63;3.05;;;;;;;-146.73;100.00;56421.06;6183898;23;20004;-94
2023/01/31 11:53:52;;;;;;;21.40;3.42;;;;;;;-146.73;100.00;56421.06;6183603;23;20156;-94
2023/01/31 11:56:23;;;;;;;21.92;3.75;;;;;;;-146.73;100.00;56421.06;6180734;23;20048;-94
2023/01/31 11:58:53;;;;;;;17.40;3.65;;;;;;;-146.73;100.00;56421.06;6179811;23;20020;-94
2023/01/31 12:01:21;;;;;;;20.92;3.45;;;;;;;-146.73;100.00;56421.06;6182793;23;20016;-93
2023/01/31 12:03:52;;;;;;;21.30;3.72;;;;;;;-146.73;100.00;56421.06;6183652;23;20461;-95
2023/01/31 12:06:36;;;;;;;18.63;3.17;;;;;;;-146.73;100.00;56421.06;6209258;23;20747;-95
2023/01/31 12:09:17;;;;;;;20.75;3.38;;;;;;;-146.73;100.00;56421.06;6184148;23;20040;-95
2023/01/31 12:12:02;;;;;;;17.90;3.42;;;;;;;-146.73;100.00;56421.06;6179825;23;20012;-95
2023/01/31 12:14:40;;;;;;;20.10;3.40;;;;;;;-146.73;100.00;56421.06;6206358;23;20342;-96
2023/01/31 12:17:11;;;;;;;16.60;2.72;;;;;;;-146.73;100.00;56421.06;6211643;23;20044;-94